Clarkson, Ohio
Current Conditions -  °F | °C
As of 9:47 AM on Thursday 30 Oct 2014 (Local Time) from KBVI Reporting Station
Overcast Overcast  
Wind Chill: 41°   Ceiling: 5000
Heat Index: 45°   Visibility: 10mi
Dew Point: 39°   Wind: 7mph
Humidity: 81%   Direction: 300°WNW
Pressure: 30.1"   Gusts: NA
Location:  40.776°N, 80.6106°W
Report Text: KBVI 301347Z 30006KT 10SM OVC050 07/04 A3010
Loading
Personal Weather Stations






























Interactive Weather Map
Tropical Storm Tracking
New forecast layout! Learn more

10-Day Weather Forecast

Advertisements
Track Severe Weather on mobile